Time;durP1;ratioP1;P1;durP2;ratioP2;P2;SDS_P1;SDS_P2;PMS_P1;PMS_P2;Temp;Humidity;BMP_temperature;BMP_pressure;BME280_temperature;BME280_humidity;BME280_pressure;Samples;Min_cycle;Max_cycle;Signal;HPM_P1;HPM_P2
2023/10/16 00:02:16;;;;;;;;;0.00;0.00;;;;;8.64;100.00;102038.50;5056629;28;45293;-83
2023/10/16 00:04:45;;;;;;;;;0.00;0.00;;;;;8.64;100.00;102036.75;5056585;28;46621;-83
2023/10/16 00:07:15;;;;;;;;;0.00;0.00;;;;;8.60;100.00;102032.44;5056702;28;45459;-83
2023/10/16 00:09:41;;;;;;;;;0.00;0.00;;;;;8.60;100.00;102029.84;5039048;28;45456;-83
2023/10/16 00:12:07;;;;;;;;;0.00;0.00;;;;;8.58;100.00;102028.09;5056885;28;45305;-83
2023/10/16 00:14:35;;;;;;;;;0.00;0.00;;;;;8.56;100.00;102025.50;5056582;28;46214;-83
2023/10/16 00:17:01;;;;;;;;;4.00;4.00;;;;;8.53;100.00;102023.78;5038582;28;45420;-83
2023/10/16 00:19:26;;;;;;;;;0.00;0.00;;;;;8.49;100.00;102031.56;5038639;28;45530;-83
2023/10/16 00:21:57;;;;;;;;;0.00;0.00;;;;;8.46;100.00;102035.03;5056583;28;45381;-83
2023/10/16 00:24:23;;;;;;;;;0.00;0.00;;;;;8.45;100.00;102025.53;5039345;28;47189;-84
2023/10/16 00:26:51;;;;;;;;;0.00;0.00;;;;;8.44;100.00;102028.97;5037860;28;45397;-83
2023/10/16 00:29:38;;;;;;;;;0.00;0.00;;;;;8.40;100.00;102019.41;5056525;28;45317;-83
2023/10/16 00:32:07;;;;;;;;;0.00;0.00;;;;;8.39;100.00;102017.69;5041028;28;45413;-83
2023/10/16 00:34:33;;;;;;;;;0.00;0.00;;;;;8.39;100.00;102014.22;5038683;28;45416;-83
2023/10/16 00:37:01;;;;;;;;;0.00;0.00;;;;;8.37;100.00;102018.56;5056301;28;45384;-84
2023/10/16 00:39:28;;;;;;;;;0.00;0.00;;;;;8.36;100.00;102003.84;5038742;28;45376;-83
2023/10/16 00:41:54;;;;;;;;;0.00;0.00;;;;;8.33;100.00;102012.50;5056093;28;45291;-84
2023/10/16 00:44:22;;;;;;;;;0.00;0.00;;;;;8.31;100.00;102009.91;5037711;28;45423;-84
2023/10/16 00:46:50;;;;;;;;;0.00;0.00;;;;;8.27;100.00;102000.38;5056026;28;45333;-83
2023/10/16 00:49:18;;;;;;;;;0.00;0.00;;;;;8.27;100.00;102000.38;5038690;28;45310;-83
2023/10/16 00:51:45;;;;;;;;;0.00;0.00;;;;;8.25;100.00;102001.25;5038755;28;45491;-84
2023/10/16 00:54:16;;;;;;;;;0.00;0.00;;;;;8.22;100.00;101999.50;5038046;28;46025;-84
2023/10/16 00:56:46;;;;;;;;;0.00;0.00;;;;;8.21;100.00;101997.78;5038387;28;45570;-83
2023/10/16 00:59:16;;;;;;;;;0.00;0.00;;;;;8.19;100.00;101999.53;5037893;28;45340;-84
2023/10/16 01:01:44;;;;;;;;;0.00;0.00;;;;;8.14;100.00;101996.06;5056083;28;45594;-83
2023/10/16 01:04:10;;;;;;;;;0.00;0.00;;;;;8.11;100.00;101993.44;5055935;28;46435;-83
2023/10/16 01:06:36;;;;;;;;;0.00;0.00;;;;;8.06;100.00;101987.38;5037598;28;45476;-83
2023/10/16 01:09:08;;;;;;;;;0.00;0.00;;;;;8.04;100.00;101991.69;5056158;28;45321;-84
2023/10/16 01:11:37;;;;;;;;;0.00;0.00;;;;;7.98;100.00;101987.38;5056310;28;45407;-83
2023/10/16 01:14:03;;;;;;;;;0.00;0.00;;;;;7.93;100.00;101982.19;5055224;28;45526;-83
2023/10/16 01:16:29;;;;;;;;;0.00;0.00;;;;;7.93;100.00;101984.78;5037730;28;45395;-83
2023/10/16 01:18:59;;;;;;;;;0.00;0.00;;;;;7.91;100.00;101986.50;5055790;28;45270;-83
2023/10/16 01:21:25;;;;;;;;;0.00;0.00;;;;;7.89;100.00;101982.16;5038035;28;45666;-84
2023/10/16 01:23:51;;;;;;;;;0.00;0.00;;;;;7.88;100.00;101977.84;5055508;28;46507;-84
2023/10/16 01:26:16;;;;;;;;;0.00;0.00;;;;;7.87;100.00;101976.97;5055361;28;45503;-83
2023/10/16 01:28:42;;;;;;;;;0.00;0.00;;;;;7.84;100.00;101970.94;5055397;28;45378;-83
2023/10/16 01:31:07;;;;;;;;;0.00;0.00;;;;;7.84;100.00;101970.94;5037776;28;45335;-84
2023/10/16 01:33:33;;;;;;;;;0.00;0.00;;;;;7.79;100.00;101964.88;5055459;28;46400;-83
2023/10/16 01:35:58;;;;;;;;;0.00;0.00;;;;;7.78;100.00;101971.75;5037737;28;45346;-83
2023/10/16 01:38:24;;;;;;;;;0.00;0.00;;;;;7.79;100.00;101970.91;5056284;28;52724;-83
2023/10/16 01:43:33;;;;;;;;;0.00;0.00;;;;;7.76;100.00;101960.53;5041117;28;45412;-83
2023/10/16 01:46:14;;;;;;;;;0.00;0.00;;;;;7.74;100.00;101959.66;5059003;28;45322;-84
2023/10/16 01:48:44;;;;;;;;;0.00;0.00;;;;;7.71;100.00;101957.09;5042047;28;45400;-83
2023/10/16 01:51:18;;;;;;;;;0.00;0.00;;;;;7.70;100.00;101958.78;5058932;28;45282;-83
2023/10/16 01:53:44;;;;;;;;;0.00;0.00;;;;;7.70;100.00;101960.53;5058822;28;46358;-84
2023/10/16 01:56:12;;;;;;;;;0.00;0.00;;;;;7.68;100.00;101960.50;5058654;28;45259;-83
2023/10/16 01:58:43;;;;;;;;;0.00;0.00;;;;;7.69;100.00;101961.38;5041058;28;45368;-83
2023/10/16 02:01:10;;;;;;;;;0.00;0.00;;;;;7.67;100.00;101947.53;5058763;28;45410;-83
2023/10/16 02:03:36;;;;;;;;;0.00;0.00;;;;;7.61;100.00;101938.03;5058604;28;45941;-83
2023/10/16 02:06:01;;;;;;;;;0.00;0.00;;;;;7.65;100.00;101938.91;5040458;28;45407;-84
2023/10/16 02:08:26;;;;;;;;;0.00;0.00;;;;;7.61;100.00;101938.03;5058138;28;55805;-83
2023/10/16 02:10:52;;;;;;;;;0.00;0.00;;;;;7.60;100.00;101933.72;5058744;28;45480;-83
2023/10/16 02:13:17;;;;;;;;;0.00;0.00;;;;;7.60;100.00;101932.88;5058019;28;47148;-83
2023/10/16 02:15:43;;;;;;;;;0.00;0.00;;;;;7.59;100.00;101931.13;5058590;28;45324;-83
2023/10/16 02:18:18;;;;;;;;;0.00;0.00;;;;;7.56;100.00;101924.22;5058765;28;45498;-84
2023/10/16 02:20:46;;;;;;;;;0.00;0.00;;;;;7.51;100.00;101919.00;5058514;28;45357;-83
2023/10/16 02:23:12;;;;;;;;;0.00;0.00;;;;;7.51;100.00;101924.19;5058222;28;46574;-84
2023/10/16 02:25:37;;;;;;;;;0.00;0.00;;;;;7.47;100.00;101916.44;5058509;28;45377;-83
2023/10/16 02:28:07;;;;;;;;;0.00;0.00;;;;;7.46;100.00;101915.53;5058265;28;45441;-84
2023/10/16 02:30:36;;;;;;;;;0.00;0.00;;;;;7.45;100.00;101907.78;5040816;28;45608;-83
2023/10/16 02:33:13;;;;;;;;;0.00;0.00;;;;;7.42;100.00;101907.78;5040740;28;47103;-83
2023/10/16 02:35:42;;;;;;;;;0.00;0.00;;;;;7.42;100.00;101907.78;5041799;28;45496;-84
2023/10/16 02:38:12;;;;;;;;;0.00;0.00;;;;;7.38;100.00;101906.03;5027981;28;45488;-84
2023/10/16 02:40:37;;;;;;;;;0.00;0.00;;;;;7.36;100.00;101908.63;5057795;28;45392;-83
2023/10/16 02:43:04;;;;;;;;;0.00;0.00;;;;;7.32;100.00;101902.56;5039784;28;47115;-84
2023/10/16 02:45:31;;;;;;;;;0.00;0.00;;;;;7.33;100.00;101909.44;5057909;28;45281;-84
2023/10/16 02:47:57;;;;;;;;;0.00;0.00;;;;;7.30;100.00;101908.56;5039987;28;45311;-83
2023/10/16 02:50:23;;;;;;;;;0.00;0.00;;;;;7.30;100.00;101911.16;5039889;28;45477;-84
2023/10/16 02:52:48;;;;;;;;;0.00;0.00;;;;;7.28;100.00;101911.19;5057160;28;66203;-84
2023/10/16 02:55:14;;;;;;;;;0.00;0.00;;;;;7.23;100.00;101912.03;5038865;28;51401;-84
2023/10/16 02:57:40;;;;;;;;;0.00;0.00;;;;;7.20;100.00;101907.69;5040033;28;45472;-84
2023/10/16 03:00:25;;;;;;;;;0.00;0.00;;;;;7.17;100.00;101905.97;5057999;28;45420;-84
2023/10/16 03:02:51;;;;;;;;;0.00;0.00;;;;;7.14;100.00;101911.13;5057745;28;46508;-84
2023/10/16 03:05:22;;;;;;;;;0.00;0.00;;;;;7.13;100.00;101909.41;5057835;28;45314;-84
2023/10/16 03:07:50;;;;;;;;;0.00;0.00;;;;;7.10;100.00;101905.94;5057583;28;45279;-84
2023/10/16 03:10:16;;;;;;;;;0.00;0.00;;;;;7.10;100.00;101908.53;5039526;28;45682;-84
2023/10/16 03:12:42;;;;;;;;;0.00;0.00;;;;;7.05;100.00;101900.72;5057431;28;46212;-84
2023/10/16 03:15:20;;;;;;;;;0.00;0.00;;;;;7.03;100.00;101901.59;5039653;28;45309;-84
2023/10/16 03:17:50;;;;;;;;;0.00;0.00;;;;;7.01;100.00;101898.13;5024701;28;45359;-83
2023/10/16 03:20:23;;;;;;;;;0.00;0.00;;;;;7.00;100.00;101898.97;5057936;28;45359;-84
2023/10/16 03:22:53;;;;;;;;;3.00;3.00;;;;;6.97;100.00;101900.69;5039500;28;47784;-84
2023/10/16 03:25:28;;;;;;;;;0.00;0.00;;;;;6.94;100.00;101894.63;5039137;28;46147;-84
2023/10/16 03:27:56;;;;;;;;;0.00;0.00;;;;;6.90;100.00;101891.16;5057828;28;45342;-84
2023/10/16 03:30:26;;;;;;;;;0.00;0.00;;;;;6.89;100.00;101886.84;5040924;28;45342;-84
2023/10/16 03:32:53;;;;;;;;;0.00;0.00;;;;;6.89;100.00;101889.44;5042954;28;47746;-84
2023/10/16 03:35:25;;;;;;;;;0.00;0.00;;;;;6.85;100.00;101886.81;5061561;28;45455;-84
2023/10/16 03:37:52;;;;;;;;;0.00;0.00;;;;;6.84;100.00;101880.78;5058320;28;45395;-83
2023/10/16 03:40:19;;;;;;;;;0.00;0.00;;;;;6.83;100.00;101878.19;5056967;28;45329;-84
2023/10/16 03:42:45;;;;;;;;;0.00;0.00;;;;;6.81;100.00;101872.16;5057021;28;46232;-84
2023/10/16 03:45:13;;;;;;;;;0.00;0.00;;;;;6.79;100.00;101875.56;5056902;28;45319;-83
2023/10/16 03:47:38;;;;;;;;;0.00;0.00;;;;;6.76;100.00;101875.59;5039560;28;45542;-84
2023/10/16 03:50:04;;;;;;;;;0.00;0.00;;;;;6.73;100.00;101874.69;5039219;28;45373;-83
2023/10/16 03:52:30;;;;;;;;;0.00;0.00;;;;;6.70;100.00;101880.69;5057057;28;46316;-84
2023/10/16 03:54:55;;;;;;;;;0.00;0.00;;;;;6.70;100.00;101883.28;5055283;28;70487;-83
2023/10/16 03:57:22;;;;;;;;;0.00;0.00;;;;;6.70;100.00;101888.47;5056234;28;57875;-84
2023/10/16 03:59:48;;;;;;;;;0.00;0.00;;;;;6.67;100.00;101885.88;5056749;28;45395;-84
2023/10/16 04:02:19;;;;;;;;;0.00;0.00;;;;;6.65;100.00;101892.78;5056074;28;45373;-84
2023/10/16 04:04:46;;;;;;;;;0.00;0.00;;;;;6.60;100.00;101881.53;5056846;28;45415;-83
2023/10/16 04:07:14;;;;;;;;;0.00;0.00;;;;;6.61;100.00;101879.78;5038563;28;45440;-85
2023/10/16 04:09:48;;;;;;;;;0.00;0.00;;;;;6.56;100.00;101878.06;5039092;28;45521;-84
2023/10/16 04:12:17;;;;;;;;;0.75;0.75;;;;;6.52;100.00;101885.78;5040117;28;46172;-83
2023/10/16 04:14:50;;;;;;;;;0.00;0.00;;;;;6.53;100.00;101883.19;5056600;28;45377;-84
2023/10/16 04:17:16;;;;;;;;;0.00;0.00;;;;;6.51;100.00;101881.47;5056678;28;45255;-84
2023/10/16 04:19:52;;;;;;;;;0.00;0.00;;;;;6.49;100.00;101876.28;5056508;28;45237;-84
2023/10/16 04:22:19;;;;;;;;;0.00;0.00;;;;;6.47;100.00;101872.81;5056198;28;46233;-84
2023/10/16 04:24:44;;;;;;;;;0.00;0.00;;;;;6.47;100.00;101880.56;5038547;28;45374;-84
2023/10/16 04:29:46;;;;;;;;;0.00;0.00;;;;;6.48;100.00;101884.03;5056603;28;45336;-84
2023/10/16 04:32:28;;;;;;;;;0.00;0.00;;;;;6.45;100.00;101879.72;5056309;28;46211;-84
2023/10/16 04:34:54;;;;;;;;;0.00;0.00;;;;;6.47;100.00;101875.41;5040666;28;45388;-84
2023/10/16 04:37:29;;;;;;;;;0.00;0.00;;;;;6.46;100.00;101867.63;5022030;28;45392;-83
2023/10/16 05:11:57;;;;;;;;;0.00;0.00;;;;;6.55;100.00;101841.81;5056074;28;45231;-84
2023/10/16 06:16:28;;;;;;;;;0.00;0.00;;;;;6.59;100.00;101830.63;4881631;29;45416;-95
2023/10/16 06:18:59;;;;;;;;;0.00;0.00;;;;;6.58;100.00;101827.19;4893294;29;45720;-89
2023/10/16 06:21:25;;;;;;;;;0.00;0.00;;;;;6.68;100.00;101845.34;4900454;29;45810;-88
2023/10/16 06:24:32;;;;;;;;;0.00;0.00;;;;;6.66;100.00;101836.72;4899159;29;45492;-87
2023/10/16 06:27:19;;;;;;;;;0.00;0.00;;;;;6.65;100.00;101834.97;4899029;29;45432;-90
2023/10/16 06:30:18;;;;;;;;;0.00;0.00;;;;;6.63;100.00;101822.03;4900889;29;46044;-91
2023/10/16 06:33:18;;;;;;;;;0.00;0.00;;;;;6.63;100.00;101824.63;4825338;29;45473;-92
2023/10/16 06:36:23;;;;;;;;;0.00;0.00;;;;;6.66;100.00;101829.81;4803043;29;45601;-91
2023/10/16 06:39:07;;;;;;;;;0.00;0.00;;;;;6.69;100.00;101814.31;4783673;29;45398;-86
2023/10/16 06:41:42;;;;;;;;;0.00;0.00;;;;;6.73;100.00;101818.63;4774782;29;45420;-90
2023/10/16 06:44:33;;;;;;;;;0.00;0.00;;;;;6.74;100.00;101822.97;4821130;29;46955;-89
2023/10/16 06:46:59;;;;;;;;;0.00;0.00;;;;;6.84;100.00;101829.03;4862831;29;45327;-84
2023/10/16 06:49:37;;;;;;;;;0.00;0.00;;;;;6.82;100.00;101820.41;4862370;29;45500;-86
2023/10/16 06:52:04;;;;;;;;;8.50;8.50;;;;;6.91;100.00;101827.31;4845956;29;45668;-86
2023/10/16 06:54:37;;;;;;;;;0.00;0.00;;;;;6.91;100.00;101823.03;4861601;29;46174;-85
2023/10/16 06:57:13;;;;;;;;;0.00;0.00;;;;;6.95;100.00;101829.06;4861329;29;45389;-84
2023/10/16 06:59:46;;;;;;;;;0.00;0.00;;;;;7.00;100.00;101829.06;4861717;29;45460;-85
2023/10/16 07:02:15;;;;;;;;;0.00;0.00;;;;;7.06;100.00;101831.72;4861164;29;45347;-85
2023/10/16 07:04:47;;;;;;;;;1.50;1.50;;;;;7.07;100.00;101830.81;4861395;29;46383;-85
2023/10/16 07:07:15;;;;;;;;;0.00;0.00;;;;;7.06;100.00;101829.13;4861215;29;45339;-85
2023/10/16 07:09:49;;;;;;;;;0.00;0.00;;;;;7.09;100.00;101822.19;4884571;28;45546;-85
2023/10/16 07:12:18;;;;;;;;;0.00;0.00;;;;;7.10;100.00;101816.16;4973878;28;45405;-85
2023/10/16 07:15:01;;;;;;;;;0.00;0.00;;;;;7.16;100.00;101823.94;5019954;28;48506;-85
2023/10/16 07:17:28;;;;;;;;;0.00;0.00;;;;;7.20;100.00;101811.88;5037174;28;45438;-85
2023/10/16 07:20:00;;;;;;;;;0.00;0.00;;;;;7.22;100.00;101810.16;5038189;28;45377;-84
2023/10/16 07:22:32;;;;;;;;;0.00;0.00;;;;;7.26;100.00;101811.00;5037499;28;45385;-86
2023/10/16 07:25:10;;;;;;;;;0.00;0.00;;;;;7.25;100.00;101811.91;5019933;28;46184;-84
2023/10/16 07:27:35;;;;;;;;;0.00;0.00;;;;;7.26;100.00;101811.00;5037223;28;45496;-85
2023/10/16 07:30:18;;;;;;;;;0.00;0.00;;;;;7.31;100.00;101825.69;5036102;28;45446;-84
2023/10/16 07:32:43;;;;;;;;;0.00;0.00;;;;;7.37;100.00;101824.84;5037173;28;45357;-84
2023/10/16 07:35:17;;;;;;;;;0.00;0.00;;;;;7.40;100.00;101818.81;5018284;28;56564;-85
2023/10/16 07:37:42;;;;;;;;;0.00;0.00;;;;;7.47;100.00;101824.00;5024190;28;45481;-85
2023/10/16 07:40:08;;;;;;;;;0.00;0.00;;;;;7.52;100.00;101832.66;5057492;28;45357;-85
2023/10/16 07:42:35;;;;;;;;;0.00;0.00;;;;;7.56;100.00;101828.34;5039443;28;45320;-85
2023/10/16 07:45:01;;;;;;;;;0.00;0.00;;;;;7.62;100.00;101836.13;5056832;28;46435;-85
2023/10/16 07:47:26;;;;;;;;;0.00;0.00;;;;;7.69;100.00;101832.69;5057284;28;45419;-85
2023/10/16 07:49:51;;;;;;;;;0.00;0.00;;;;;7.78;100.00;101831.78;5040302;28;60696;-85
2023/10/16 07:52:18;;;;;;;;;0.00;0.00;;;;;7.81;100.00;101828.34;5059374;28;45344;-87
2023/10/16 07:54:43;;;;;;;;;6.00;6.00;;;;;7.90;100.00;101839.59;5063558;28;45349;-86
2023/10/16 07:57:09;;;;;;;;;0.00;0.00;;;;;7.95;100.00;101835.25;5046150;28;45346;-85
2023/10/16 07:59:36;;;;;;;;;0.00;0.00;;;;;8.03;100.00;101840.44;5059740;28;45259;-85
2023/10/16 08:02:08;;;;;;;;;0.00;0.00;;;;;8.11;100.00;101837.84;5056919;28;45392;-86
2023/10/16 08:04:36;;;;;;;;;0.00;0.00;;;;;8.11;100.00;101824.88;5039770;28;45441;-85
2023/10/16 08:07:04;;;;;;;;;2.25;2.25;;;;;8.20;100.00;101831.78;5056846;28;45218;-85
2023/10/16 08:12:12;;;;;;;;;0.00;0.00;;;;;8.35;100.00;101826.56;5038897;28;45339;-85
2023/10/16 08:14:41;;;;;;;;;0.00;0.00;;;;;8.40;100.00;101822.22;5040225;28;46171;-85
2023/10/16 08:17:14;;;;;;;;;0.00;0.00;;;;;8.51;100.00;101819.66;5039029;28;45439;-85
2023/10/16 08:19:43;;;;;;;;;3.00;3.00;;;;;8.58;100.00;101812.69;5040043;28;45363;-87
2023/10/16 08:22:09;;;;;;;;;0.00;0.00;;;;;8.63;100.00;101814.38;5038798;28;45559;-85
2023/10/16 08:24:34;;;;;;;;;0.00;0.00;;;;;8.71;100.00;101804.88;5038675;28;45522;-85
2023/10/16 08:30:17;;;;;;;;;1.00;1.00;;;;;8.83;100.00;101803.94;4994046;28;45437;-85
2023/10/16 08:32:53;;;;;;;;;0.00;0.00;;;;;8.91;100.00;101801.28;4980007;28;45643;-84
2023/10/16 08:35:19;;;;;;;;;0.00;0.00;;;;;9.01;100.00;101799.53;4994174;28;46199;-85
2023/10/16 08:37:56;;;;;;;;;0.00;0.00;;;;;9.01;100.00;101792.59;4982017;28;45391;-85
2023/10/16 08:40:24;;;;;;;;;0.00;0.00;;;;;9.10;100.00;101789.06;4999158;28;45381;-85
2023/10/16 08:43:03;;;;;;;;;0.00;0.00;;;;;9.22;100.00;101793.34;4997386;28;45496;-85
2023/10/16 08:45:32;;;;;;;;;0.00;0.00;;;;;9.28;100.00;101785.50;5013600;28;46657;-84
2023/10/16 08:47:58;;;;;;;;;0.00;0.00;;;;;9.33;100.00;101782.88;5013341;28;45468;-85
2023/10/16 08:50:43;;;;;;;;;0.00;0.00;;;;;9.39;100.00;101773.28;4997317;28;45508;-85
2023/10/16 08:55:56;;;;;;;;;0.00;0.00;;;;;9.53;100.00;101767.13;5013514;28;45412;-85
2023/10/16 08:58:22;;;;;;;;;0.00;0.00;;;;;9.54;100.00;101756.72;5029972;28;45558;-85
2023/10/16 09:00:55;;;;;;;;;0.00;0.00;;;;;9.59;100.00;101752.34;5030655;28;45337;-87
2023/10/16 09:03:21;;;;;;;;;0.00;0.00;;;;;9.62;100.00;101744.53;5039451;28;45421;-86
2023/10/16 09:05:46;;;;;;;;;0.00;0.00;;;;;9.67;100.00;101753.13;5038038;28;46515;-85
2023/10/16 09:08:15;;;;;;;;;0.00;0.00;;;;;9.69;100.00;101743.59;5037130;28;67365;-86
2023/10/16 09:10:44;;;;;;;;;0.00;0.00;;;;;9.79;100.00;101751.31;5038451;28;45783;-85
2023/10/16 09:13:17;;;;;;;;;0.00;0.00;;;;;9.89;100.00;101755.53;5037823;28;45433;-86
2023/10/16 09:15:45;;;;;;;;;0.00;0.00;;;;;9.97;100.00;101752.84;5056025;28;45518;-85
2023/10/16 09:18:13;;;;;;;;;0.00;0.00;;;;;10.06;100.00;101744.97;5037840;28;45875;-86
2023/10/16 09:20:41;;;;;;;;;0.00;0.00;;;;;10.19;100.00;101753.50;5037816;28;45428;-85
2023/10/16 09:23:13;;;;;;;;;0.00;0.00;;;;;10.31;100.00;101756.00;5038006;28;45401;-85
2023/10/16 09:25:42;;;;;;;;;0.00;0.00;;;;;10.40;100.00;101748.09;5055644;28;47147;-86
2023/10/16 09:28:08;;;;;;;;;0.00;0.00;;;;;10.49;100.00;101741.03;5055283;28;45397;-85
2023/10/16 09:30:34;;;;;;;;;0.00;0.00;;;;;10.63;100.00;101747.78;5055772;28;45365;-85
2023/10/16 09:32:59;;;;;;;;;0.00;0.00;;;;;10.68;100.00;101744.25;5020936;28;45537;-86
2023/10/16 09:35:32;;;;;;;;;0.00;0.00;;;;;10.77;100.00;101739.81;5037165;28;59798;-85
2023/10/16 09:38:17;;;;;;;;;0.00;0.00;;;;;10.92;100.00;101738.72;5055268;28;45455;-85
2023/10/16 09:40:58;;;;;;;;;0.00;0.00;;;;;10.99;100.00;101732.53;5038211;28;45380;-85
2023/10/16 09:43:25;;;;;;;;;0.00;0.00;;;;;11.04;100.00;101727.25;5038853;28;45510;-86
2023/10/16 09:46:33;;;;;;;;;0.00;0.00;;;;;11.09;100.00;101725.44;5037202;28;46705;-86
2023/10/16 09:48:40;;;;;;;;;0.00;0.00;;;;;11.14;100.00;101713.19;5040256;28;45406;-86
2023/10/16 09:51:09;;;;;;;;;0.00;0.00;;;;;11.20;100.00;101720.94;5055312;28;46046;-86
2023/10/16 09:53:35;;;;;;;;;0.00;0.00;;;;;11.21;100.00;101704.38;5055523;28;45222;-86
2023/10/16 09:56:02;;;;;;;;;0.00;0.00;;;;;11.26;100.00;101708.69;5037160;28;46262;-86
2023/10/16 09:58:32;;;;;;;;;0.00;0.00;;;;;11.31;100.00;101710.34;5037394;28;45382;-86
2023/10/16 10:01:06;;;;;;;;;1.50;1.50;;;;;11.40;100.00;101722.34;5041043;28;45283;-85
2023/10/16 10:03:35;;;;;;;;;0.00;0.00;;;;;11.46;100.00;101704.00;5042216;28;45661;-86
2023/10/16 10:06:20;;;;;;;;;0.00;0.00;;;;;11.61;100.00;101698.50;5058518;28;45502;-86
2023/10/16 10:09:22;;;;;;;;;0.00;0.00;;;;;11.79;100.00;101692.09;5043472;28;45528;-86
2023/10/16 10:11:47;;;;;;;;;0.00;0.00;;;;;11.96;100.00;101689.22;5041978;28;45355;-87
2023/10/16 10:16:56;;;;;;;;;0.00;0.00;;;;;12.13;100.00;101688.03;5041820;28;45464;-85
2023/10/16 10:19:35;;;;;;;;;0.00;0.00;;;;;12.28;100.00;101687.69;5058747;28;45400;-86
2023/10/16 10:22:06;;;;;;;;;0.00;0.00;;;;;12.36;100.00;101683.16;5025341;28;45390;-85
2023/10/16 10:24:35;;;;;;;;;0.00;0.00;;;;;12.45;100.00;101670.81;5058244;28;45602;-86
2023/10/16 10:27:11;;;;;;;;;0.00;0.00;;;;;12.55;100.00;101672.31;5040337;28;46357;-86
2023/10/16 10:29:37;;;;;;;;;0.00;0.00;;;;;12.63;100.00;101667.78;5058221;28;45405;-85
2023/10/16 10:32:06;;;;;;;;;0.00;0.00;;;;;12.70;100.00;101669.38;5058650;28;45426;-86
2023/10/16 10:34:31;;;;;;;;;0.00;0.00;;;;;12.77;100.00;101667.47;5058366;28;45326;-85
2023/10/16 10:36:59;;;;;;;;;0.00;0.00;;;;;12.87;100.00;101663.75;5040282;28;46330;-85
2023/10/16 10:39:36;;;;;;;;;0.00;0.00;;;;;13.05;100.00;101657.19;5057743;28;45482;-85
2023/10/16 10:42:04;;;;;;;;;0.00;0.00;;;;;13.13;100.00;101638.72;5058215;28;45564;-86
2023/10/16 10:44:39;;;;;;;;;4.00;4.00;;;;;13.18;100.00;101647.31;5040680;28;45310;-86
2023/10/16 10:47:32;;;;;;;;;0.00;0.00;;;;;13.33;100.00;101649.59;5040521;28;46759;-85
2023/10/16 10:50:12;;;;;;;;;0.00;0.00;;;;;13.45;100.00;101648.41;5057915;28;45380;-86
2023/10/16 10:52:38;;;;;;;;;0.00;0.00;;;;;13.68;100.00;101657.38;5058409;28;45350;-86
2023/10/16 10:55:14;;;;;;;;;0.00;0.00;;;;;13.92;100.00;101655.84;5038767;28;69673;-86
2023/10/16 10:57:39;;;;;;;;;0.00;0.00;;;;;14.12;100.00;101656.13;5058262;28;46327;-86
2023/10/16 11:02:52;;;;;;;;;0.00;0.00;;;;;14.61;100.00;101661.66;5040810;28;45431;-87
2023/10/16 11:05:23;;;;;;;;;0.00;0.00;;;;;14.90;100.00;101658.13;5058062;28;45370;-86
2023/10/16 11:10:36;;;;;;;;;0.00;0.00;;;;;16.11;100.00;101640.88;5042152;28;45326;-86
2023/10/16 11:13:05;;;;;;;;;0.00;0.00;;;;;16.53;100.00;101633.09;5040131;28;45416;-87
2023/10/16 11:15:31;;;;;;;;;0.00;0.00;;;;;16.98;100.00;101629.53;5039340;28;56379;-86
2023/10/16 11:18:05;;;;;;;;;0.00;0.00;;;;;17.56;93.31;101620.91;5039491;28;45712;-86
2023/10/16 11:20:31;;;;;;;;;0.00;0.00;;;;;17.75;98.63;101612.19;5057462;28;45349;-86
2023/10/16 11:22:57;;;;;;;;;0.00;0.00;;;;;17.71;91.26;101602.75;5039425;28;45357;-85
2023/10/16 11:25:28;;;;;;;;;0.00;0.00;;;;;17.76;88.36;101601.59;5057619;28;45370;-86
2023/10/16 11:27:57;;;;;;;;;0.00;0.00;;;;;17.79;91.13;101601.47;5040497;28;46946;-86
2023/10/16 11:30:26;;;;;;;;;0.00;0.00;;;;;18.00;96.13;101585.66;5057623;28;45357;-87
2023/10/16 11:32:53;;;;;;;;;0.50;0.50;;;;;18.47;93.45;101592.22;5057269;28;45333;-86
2023/10/16 11:35:19;;;;;;;;;0.00;0.00;;;;;18.66;88.29;101576.34;5039579;28;45743;-86
2023/10/16 11:37:50;;;;;;;;;0.00;0.00;;;;;18.77;88.58;101569.59;5038864;28;46400;-86
2023/10/16 11:40:19;;;;;;;;;0.00;0.00;;;;;19.04;88.13;101566.53;5057329;28;45415;-86
2023/10/16 11:42:45;;;;;;;;;0.00;0.00;;;;;19.21;83.75;101570.94;5039868;28;45387;-86
2023/10/16 11:45:18;;;;;;;;;0.00;0.00;;;;;19.22;83.31;101559.44;5039205;28;45471;-85
2023/10/16 11:47:44;;;;;;;;;0.00;0.00;;;;;19.07;72.50;101562.88;5057014;28;45464;-86
2023/10/16 11:50:15;;;;;;;;;0.00;0.00;;;;;19.13;75.00;101562.56;5039051;28;45360;-86
2023/10/16 11:52:41;;;;;;;;;0.00;0.00;;;;;19.44;74.91;101556.50;5056743;28;45371;-86
2023/10/16 11:55:08;;;;;;;;;0.00;0.00;;;;;19.84;79.13;101549.13;5057014;28;45475;-85
2023/10/16 11:57:33;;;;;;;;;0.00;0.00;;;;;20.28;75.85;101537.84;5057040;28;46139;-85
2023/10/16 12:00:15;;;;;;;;;0.00;0.00;;;;;20.79;78.33;101534.09;5056511;28;62717;-85
2023/10/16 12:02:41;;;;;;;;;0.00;0.00;;;;;21.13;73.26;101524.94;5057108;28;45399;-86
2023/10/16 12:05:07;;;;;;;;;0.00;0.00;;;;;21.33;71.93;101517.59;5055669;28;45658;-85
2023/10/16 12:07:33;;;;;;;;;0.00;0.00;;;;;21.64;66.33;101516.56;5038515;28;45538;-86
2023/10/16 12:10:04;;;;;;;;;0.00;0.00;;;;;21.97;67.14;101507.38;5039978;28;45457;-86
2023/10/16 12:12:30;;;;;;;;;1.00;1.00;;;;;22.30;67.07;101506.16;5058204;28;45317;-86
2023/10/16 12:14:56;;;;;;;;;0.00;0.00;;;;;22.71;66.17;101500.72;5063168;28;53298;-86
2023/10/16 12:17:24;;;;;;;;;0.00;0.00;;;;;22.91;64.72;101502.00;5062930;28;46381;-85
2023/10/16 12:19:52;;;;;;;;;0.00;0.00;;;;;23.20;63.86;101496.50;5041039;28;45341;-85
2023/10/16 12:22:20;;;;;;;;;0.00;0.00;;;;;23.64;64.20;101510.22;5055792;28;45274;-85
2023/10/16 12:24:46;;;;;;;;;0.00;0.00;;;;;23.60;61.14;101509.59;5039172;28;45514;-86
2023/10/16 12:27:15;;;;;;;;;0.00;0.00;;;;;23.45;59.71;101506.22;5056295;28;46500;-88
2023/10/16 12:29:41;;;;;;;;;0.00;0.00;;;;;23.33;58.13;101512.44;5056676;28;45471;-86
2023/10/16 12:32:07;;;;;;;;;0.00;0.00;;;;;23.42;54.05;101502.94;5056472;28;45260;-86
2023/10/16 12:34:32;;;;;;;;;0.00;0.00;;;;;23.58;57.33;101495.56;5056629;28;45377;-86
2023/10/16 12:36:59;;;;;;;;;0.00;0.00;;;;;23.92;54.34;101503.78;5055983;28;47144;-85
2023/10/16 12:39:28;;;;;;;;;0.00;0.00;;;;;24.25;54.88;101491.63;5038290;28;45413;-86
2023/10/16 12:41:57;;;;;;;;;0.00;0.00;;;;;24.57;53.24;101477.72;5039021;28;45368;-86
2023/10/16 12:44:23;;;;;;;;;0.00;0.00;;;;;24.80;52.09;101465.31;5056282;28;45490;-85
2023/10/16 12:46:50;;;;;;;;;0.00;0.00;;;;;24.91;52.35;101466.16;5038323;28;47264;-86
2023/10/16 12:49:15;;;;;;;;;4.50;4.50;;;;;25.17;51.27;101468.59;5037994;28;45425;-85
2023/10/16 12:51:42;;;;;;;;;0.00;0.00;;;;;25.79;51.23;101453.00;5055760;28;59914;-86
2023/10/16 12:54:09;;;;;;;;;0.00;0.00;;;;;26.51;49.49;101459.50;5056776;28;45347;-86
2023/10/16 12:56:38;;;;;;;;;0.00;0.00;;;;;27.27;46.29;101452.03;5038214;28;46096;-86
2023/10/16 12:59:04;;;;;;;;;0.00;0.00;;;;;27.77;48.82;101454.66;5039018;28;45404;-86
2023/10/16 13:01:30;;;;;;;;;0.00;0.00;;;;;28.23;43.87;101449.63;5038836;28;45338;-87
2023/10/16 13:04:01;;;;;;;;;0.00;0.00;;;;;28.39;45.02;101446.34;5038363;28;45489;-86
2023/10/16 13:06:28;;;;;;;;;0.00;0.00;;;;;28.06;42.11;101432.44;5056300;28;46265;-86
2023/10/16 13:08:54;;;;;;;;;0.00;0.00;;;;;27.63;43.20;101439.00;5038210;28;45514;-87
2023/10/16 13:11:20;;;;;;;;;0.00;0.00;;;;;26.88;42.08;101440.34;5056179;28;45392;-86
2023/10/16 13:13:45;;;;;;;;;0.00;0.00;;;;;26.29;42.28;101433.78;5056264;28;45360;-87
2023/10/16 13:16:11;;;;;;;;;0.00;0.00;;;;;26.11;41.42;101431.66;5038069;28;46637;-87
2023/10/16 13:18:36;;;;;;;;;0.00;0.00;;;;;26.26;39.54;101438.41;5036675;28;72174;-86
2023/10/16 13:21:07;;;;;;;;;0.00;0.00;;;;;26.76;41.50;101431.53;5055931;28;45564;-86
2023/10/16 13:23:36;;;;;;;;;0.00;0.00;;;;;27.22;42.38;101431.00;5037889;28;45500;-87
2023/10/16 13:26:02;;;;;;;;;0.00;0.00;;;;;27.76;40.24;101433.41;5055603;28;46295;-86
2023/10/16 13:28:30;;;;;;;;;0.00;0.00;;;;;28.31;42.09;101416.78;5055718;28;45543;-86
2023/10/16 13:30:55;;;;;;;;;0.00;0.00;;;;;29.16;40.35;101420.34;5055790;28;45357;-86
2023/10/16 13:33:21;;;;;;;;;0.00;0.00;;;;;29.90;40.98;101431.84;5055591;28;64738;-86